Time;durP1;ratioP1;P1;durP2;ratioP2;P2;SDS_P1;SDS_P2;PMS_P1;PMS_P2;Temp;Humidity;BMP_temperature;BMP_pressure;BME280_temperature;BME280_humidity;BME280_pressure;Samples;Min_cycle;Max_cycle;Signal;HPM_P1;HPM_P2
2022/12/16 00:00:28;;;;;;;8.13;6.97;;;;;;;20.11;42.45;95733.84;10339236;28;20108;-82
2022/12/16 00:05:55;;;;;;;8.52;7.25;;;;;;;20.09;42.35;95719.88;10365471;28;20457;-83
2022/12/16 00:11:15;;;;;;;7.88;6.85;;;;;;;20.07;42.38;95698.63;10354772;28;20134;-84
2022/12/16 00:16:34;;;;;;;7.47;6.60;;;;;;;20.05;42.26;95714.44;10367059;28;20511;-82
2022/12/16 00:21:53;;;;;;;9.20;7.35;;;;;;;20.04;42.33;95687.75;10354298;28;20430;-82
2022/12/16 00:27:13;;;;;;;7.82;7.00;;;;;;;20.02;42.32;95695.44;10358692;28;20054;-82
2022/12/16 00:32:32;;;;;;;10.48;7.18;;;;;;;20.00;42.26;95676.06;10367792;28;20062;-82
2022/12/16 00:37:51;;;;;;;7.65;6.85;;;;;;;19.98;42.35;95676.41;10346243;28;20046;-82
2022/12/16 00:43:11;;;;;;;7.43;6.65;;;;;;;19.95;42.18;95661.69;10318553;28;20053;-82
2022/12/16 00:48:31;;;;;;;8.10;6.93;;;;;;;19.94;42.06;95656.66;10330669;28;20505;-84
2022/12/16 00:53:50;;;;;;;7.72;6.95;;;;;;;19.92;42.16;95648.09;10330670;28;20046;-82
2022/12/16 00:59:09;;;;;;;9.77;6.95;;;;;;;19.90;42.00;95640.34;10345681;28;20492;-82
2022/12/16 01:04:29;;;;;;;7.90;7.00;;;;;;;19.88;42.21;95650.72;10335497;28;20045;-82
2022/12/16 01:09:48;;;;;;;7.80;6.93;;;;;;;19.86;42.09;95646.81;10360015;28;20065;-82
2022/12/16 01:15:11;;;;;;;7.50;6.72;;;;;;;19.85;42.06;95642.53;10326286;28;20046;-82
2022/12/16 01:20:32;;;;;;;7.90;7.03;;;;;;;19.82;42.13;95633.22;10355500;28;20050;-82
2022/12/16 01:25:52;;;;;;;7.45;6.60;;;;;;;19.79;42.12;95633.94;10333304;28;20050;-82
2022/12/16 01:31:14;;;;;;;7.22;6.53;;;;;;;19.78;41.72;95618.88;10362457;28;20053;-83
2022/12/16 01:36:34;;;;;;;7.63;6.85;;;;;;;19.75;41.95;95622.25;10333659;28;20049;-83
2022/12/16 01:41:53;;;;;;;7.80;7.00;;;;;;;19.72;41.84;95612.94;10339470;28;20050;-83
2022/12/16 01:47:16;;;;;;;7.65;6.72;;;;;;;19.70;41.81;95607.09;10334233;28;20113;-83
2022/12/16 01:52:41;;;;;;;7.75;6.78;;;;;;;19.69;42.00;95593.94;10352038;28;20104;-83
2022/12/16 01:58:06;;;;;;;6.85;6.13;;;;;;;19.68;42.04;95595.03;10325146;28;20051;-82
2022/12/16 02:03:29;;;;;;;7.03;6.32;;;;;;;19.65;41.85;95596.53;10330028;28;20054;-79
2022/12/16 02:08:57;;;;;;;7.38;6.68;;;;;;;19.63;41.88;95598.81;10324385;28;20118;-79
2022/12/16 02:14:42;;;;;;;7.13;6.43;;;;;;;19.62;41.78;95618.06;10342943;28;20054;-79
2022/12/16 02:20:24;;;;;;;7.72;6.57;;;;;;;19.59;41.66;95622.28;10359668;28;20520;-80
2022/12/16 02:25:53;;;;;;;7.70;6.25;;;;;;;19.56;41.75;95620.25;10345226;28;20054;-79
2022/12/16 02:31:40;;;;;;;6.53;5.93;;;;;;;19.54;41.64;95609.84;10329207;28;20057;-79
2022/12/16 02:37:13;;;;;;;7.23;6.53;;;;;;;19.51;41.45;95615.94;10345808;28;20057;-79
2022/12/16 02:42:47;;;;;;;6.88;6.18;;;;;;;19.50;41.54;95638.69;10330466;28;20047;-79
2022/12/16 02:48:06;;;;;;;7.93;6.18;;;;;;;19.47;41.56;95641.31;10362757;28;20054;-80
2022/12/16 02:53:26;;;;;;;6.72;6.03;;;;;;;19.46;41.42;95642.44;10353128;28;20121;-79
2022/12/16 02:59:01;;;;;;;6.47;5.78;;;;;;;19.45;41.34;95646.28;10342577;28;20156;-80
2022/12/16 03:04:33;;;;;;;6.65;5.93;;;;;;;19.42;41.22;95653.16;10371921;28;20074;-80
2022/12/16 03:09:53;;;;;;;7.22;6.53;;;;;;;19.40;41.20;95638.44;10339017;28;20054;-80
2022/12/16 03:15:15;;;;;;;6.65;5.97;;;;;;;19.39;41.42;95628.78;10363555;28;20049;-80
2022/12/16 03:20:48;;;;;;;6.85;6.15;;;;;;;19.36;41.26;95627.53;10346199;28;20057;-79
2022/12/16 03:26:14;;;;;;;7.03;6.32;;;;;;;19.34;41.57;95627.13;10350609;28;20473;-80
2022/12/16 03:31:46;;;;;;;6.78;6.07;;;;;;;19.31;41.37;95639.41;10362018;28;20058;-79
2022/12/16 03:37:08;;;;;;;6.68;5.97;;;;;;;19.29;41.40;95633.56;10326890;28;20051;-80
2022/12/16 03:42:28;;;;;;;6.88;6.18;;;;;;;19.28;41.29;95640.09;10336126;28;20149;-79
2022/12/16 03:47:49;;;;;;;6.63;5.95;;;;;;;19.26;41.30;95639.66;10344887;28;20058;-80
2022/12/16 03:53:09;;;;;;;6.80;5.93;;;;;;;19.24;41.46;95630.34;10348568;28;20053;-80
2022/12/16 03:58:28;;;;;;;6.05;5.45;;;;;;;19.21;41.38;95636.44;10332574;28;20100;-80
2022/12/16 04:03:48;;;;;;;6.40;5.80;;;;;;;19.19;41.24;95626.00;10319574;28;20055;-81
2022/12/16 04:09:07;;;;;;;6.15;5.55;;;;;;;19.17;41.28;95599.38;10353321;28;20054;-80
2022/12/16 04:25:51;;;;;;;5.93;5.32;;;;;;;19.10;41.17;95612.69;10371823;28;20485;-80
2022/12/16 04:31:10;;;;;;;6.63;5.85;;;;;;;19.09;41.24;95621.94;10355281;28;20053;-80
